sensor_id;sensor_type;location;lat;lon;timestamp;pressure;altitude;pressure_sealevel;temperature;humidity
74834;BME280;63361;52.384;20.930;2023-01-08T00:01:38;100953.75;;;3.78;100.00
74834;BME280;63361;52.384;20.930;2023-01-08T00:04:04;100942.84;;;3.80;100.00
74834;BME280;63361;52.384;20.930;2023-01-08T00:06:29;100950.97;;;3.85;100.00
74834;BME280;63361;52.384;20.930;2023-01-08T00:08:54;100935.66;;;3.80;100.00
74834;BME280;63361;52.384;20.930;2023-01-08T00:11:20;100928.06;;;3.77;100.00
74834;BME280;63361;52.384;20.930;2023-01-08T00:13:45;100932.97;;;3.80;100.00
74834;BME280;63361;52.384;20.930;2023-01-08T00:16:12;100934.63;;;3.81;100.00
74834;BME280;63361;52.384;20.930;2023-01-08T00:18:38;100931.78;;;3.76;100.00
74834;BME280;63361;52.384;20.930;2023-01-08T00:21:05;100933.53;;;3.82;100.00
74834;BME280;63361;52.384;20.930;2023-01-08T00:23:31;100947.72;;;3.83;100.00
74834;BME280;63361;52.384;20.930;2023-01-08T00:25:56;100946.84;;;3.89;100.00
74834;BME280;63361;52.384;20.930;2023-01-08T00:28:24;100938.44;;;3.85;100.00
74834;BME280;63361;52.384;20.930;2023-01-08T00:30:50;100925.84;;;3.74;100.00
74834;BME280;63361;52.384;20.930;2023-01-08T00:33:15;100920.81;;;3.66;100.00
74834;BME280;63361;52.384;20.930;2023-01-08T00:35:41;100926.81;;;3.62;100.00
74834;BME280;63361;52.384;20.930;2023-01-08T00:38:06;100932.66;;;3.70;100.00
74834;BME280;63361;52.384;20.930;2023-01-08T00:40:32;100925.84;;;3.74;100.00
74834;BME280;63361;52.384;20.930;2023-01-08T00:42:58;100937.41;;;3.68;100.00
74834;BME280;63361;52.384;20.930;2023-01-08T00:45:24;100929.25;;;3.63;100.00
74834;BME280;63361;52.384;20.930;2023-01-08T00:47:49;100925.91;;;3.68;100.00
74834;BME280;63361;52.384;20.930;2023-01-08T00:50:15;100936.00;;;3.66;100.00
74834;BME280;63361;52.384;20.930;2023-01-08T00:52:40;100919.44;;;3.57;100.00
74834;BME280;63361;52.384;20.930;2023-01-08T00:55:06;100925.81;;;3.56;100.00
74834;BME280;63361;52.384;20.930;2023-01-08T00:57:36;100920.91;;;3.53;100.00
74834;BME280;63361;52.384;20.930;2023-01-08T01:00:04;100932.78;;;3.57;100.00
74834;BME280;63361;52.384;20.930;2023-01-08T01:02:29;100907.66;;;3.46;100.00
74834;BME280;63361;52.384;20.930;2023-01-08T01:04:55;100908.03;;;3.50;100.00
74834;BME280;63361;52.384;20.930;2023-01-08T01:07:20;100906.03;;;3.45;100.00
74834;BME280;63361;52.384;20.930;2023-01-08T01:09:46;100899.56;;;3.35;100.00
74834;BME280;63361;52.384;20.930;2023-01-08T01:12:11;100918.47;;;3.33;100.00
74834;BME280;63361;52.384;20.930;2023-01-08T01:14:37;100920.09;;;3.34;100.00
74834;BME280;63361;52.384;20.930;2023-01-08T01:17:03;100898.63;;;3.23;100.00
74834;BME280;63361;52.384;20.930;2023-01-08T01:19:28;100907.09;;;3.20;100.00
74834;BME280;63361;52.384;20.930;2023-01-08T01:21:53;100896.88;;;3.16;100.00
74834;BME280;63361;52.384;20.930;2023-01-08T01:24:19;100896.91;;;3.10;100.00
74834;BME280;63361;52.384;20.930;2023-01-08T01:26:46;100902.66;;;3.07;100.00
74834;BME280;63361;52.384;20.930;2023-01-08T01:29:11;100886.97;;;2.99;100.00
74834;BME280;63361;52.384;20.930;2023-01-08T01:31:36;100889.59;;;3.05;100.00
74834;BME280;63361;52.384;20.930;2023-01-08T01:34:02;100888.78;;;3.05;100.00
74834;BME280;63361;52.384;20.930;2023-01-08T01:36:27;100887.78;;;2.99;100.00
74834;BME280;63361;52.384;20.930;2023-01-08T01:38:54;100905.81;;;3.04;100.00
74834;BME280;63361;52.384;20.930;2023-01-08T01:41:27;100881.09;;;2.90;100.00
74834;BME280;63361;52.384;20.930;2023-01-08T01:43:55;100888.81;;;2.98;100.00
74834;BME280;63361;52.384;20.930;2023-01-08T01:48:55;100876.22;;;2.80;100.00
74834;BME280;63361;52.384;20.930;2023-01-08T01:51:24;100890.13;;;2.89;100.00
74834;BME280;63361;52.384;20.930;2023-01-08T01:53:53;100869.44;;;2.85;100.00
74834;BME280;63361;52.384;20.930;2023-01-08T01:56:19;100877.81;;;2.88;100.00
74834;BME280;63361;52.384;20.930;2023-01-08T01:58:44;100860.03;;;2.82;100.00
74834;BME280;63361;52.384;20.930;2023-01-08T02:01:10;100865.31;;;2.89;100.00
74834;BME280;63361;52.384;20.930;2023-01-08T02:03:37;100864.31;;;2.83;100.00
74834;BME280;63361;52.384;20.930;2023-01-08T02:14:48;100857.31;;;2.89;100.00
74834;BME280;63361;52.384;20.930;2023-01-08T02:16:56;100844.56;;;2.91;100.00
74834;BME280;63361;52.384;20.930;2023-01-08T02:19:40;100857.47;;;2.94;100.00
74834;BME280;63361;52.384;20.930;2023-01-08T02:23:19;100853.44;;;2.85;100.00
74834;BME280;63361;52.384;20.930;2023-01-08T02:28:11;100854.97;;;2.99;100.00
74834;BME280;63361;52.384;20.930;2023-01-08T02:30:39;100841.31;;;2.89;100.00
74834;BME280;63361;52.384;20.930;2023-01-08T02:33:05;100856.22;;;2.96;100.00
74834;BME280;63361;52.384;20.930;2023-01-08T02:38:43;100837.94;;;3.00;100.00
74834;BME280;63361;52.384;20.930;2023-01-08T02:41:14;100855.81;;;3.17;100.00
74834;BME280;63361;52.384;20.930;2023-01-08T02:43:44;100844.97;;;3.12;100.00
74834;BME280;63361;52.384;20.930;2023-01-08T02:46:15;100840.69;;;3.11;100.00
74834;BME280;63361;52.384;20.930;2023-01-08T02:48:45;100833.22;;;3.20;100.00
74834;BME280;63361;52.384;20.930;2023-01-08T02:51:13;100838.56;;;3.20;100.00
74834;BME280;63361;52.384;20.930;2023-01-08T02:53:47;100827.56;;;3.10;100.00
74834;BME280;63361;52.384;20.930;2023-01-08T02:56:17;100834.19;;;3.26;100.00
74834;BME280;63361;52.384;20.930;2023-01-08T02:58:44;100838.31;;;3.22;100.00
74834;BME280;63361;52.384;20.930;2023-01-08T03:01:13;100830.41;;;3.15;100.00
74834;BME280;63361;52.384;20.930;2023-01-08T03:03:42;100823.28;;;3.09;100.00
74834;BME280;63361;52.384;20.930;2023-01-08T03:06:14;100826.31;;;3.12;100.00
74834;BME280;63361;52.384;20.930;2023-01-08T03:08:46;100827.13;;;3.13;100.00
74834;BME280;63361;52.384;20.930;2023-01-08T03:11:14;100824.03;;;2.91;100.00
74834;BME280;63361;52.384;20.930;2023-01-08T03:13:54;100835.53;;;2.92;100.00
74834;BME280;63361;52.384;20.930;2023-01-08T03:16:28;100806.19;;;2.73;100.00
74834;BME280;63361;52.384;20.930;2023-01-08T03:19:00;100807.25;;;2.66;100.00
74834;BME280;63361;52.384;20.930;2023-01-08T03:21:26;100804.66;;;2.59;100.00
74834;BME280;63361;52.384;20.930;2023-01-08T03:23:52;100790.59;;;2.45;100.00
74834;BME280;63361;52.384;20.930;2023-01-08T03:26:21;100801.88;;;2.47;100.00
74834;BME280;63361;52.384;20.930;2023-01-08T03:28:52;100810.13;;;2.39;100.00
74834;BME280;63361;52.384;20.930;2023-01-08T03:31:19;100797.28;;;2.30;100.00
74834;BME280;63361;52.384;20.930;2023-01-08T03:33:46;100803.66;;;2.29;100.00
74834;BME280;63361;52.384;20.930;2023-01-08T03:36:15;100801.66;;;2.18;100.00
74834;BME280;63361;52.384;20.930;2023-01-08T03:38:47;100783.34;;;2.03;100.00
74834;BME280;63361;52.384;20.930;2023-01-08T03:41:18;100800.53;;;2.00;100.00
74834;BME280;63361;52.384;20.930;2023-01-08T03:43:45;100783.59;;;1.95;100.00
74834;BME280;63361;52.384;20.930;2023-01-08T03:46:14;100795.28;;;1.94;100.00
74834;BME280;63361;52.384;20.930;2023-01-08T03:48:41;100792.63;;;1.94;100.00
74834;BME280;63361;52.384;20.930;2023-01-08T03:51:08;100791.31;;;2.03;100.00
74834;BME280;63361;52.384;20.930;2023-01-08T03:53:33;100798.88;;;2.06;100.00
74834;BME280;63361;52.384;20.930;2023-01-08T03:55:59;100806.44;;;2.09;100.00
74834;BME280;63361;52.384;20.930;2023-01-08T03:58:24;100768.69;;;1.87;100.00
74834;BME280;63361;52.384;20.930;2023-01-08T04:00:49;100801.13;;;2.09;100.00
74834;BME280;63361;52.384;20.930;2023-01-08T04:03:15;100809.53;;;2.06;100.00
74834;BME280;63361;52.384;20.930;2023-01-08T04:05:40;100807.50;;;2.01;100.00
74834;BME280;63361;52.384;20.930;2023-01-08T04:08:05;100798.34;;;1.97;100.00
74834;BME280;63361;52.384;20.930;2023-01-08T04:10:30;100806.06;;;2.05;100.00
74834;BME280;63361;52.384;20.930;2023-01-08T04:12:56;100792.00;;;1.92;100.00
74834;BME280;63361;52.384;20.930;2023-01-08T04:15:21;100809.53;;;2.06;100.00
74834;BME280;63361;52.384;20.930;2023-01-08T04:17:46;100797.25;;;2.05;100.00
74834;BME280;63361;52.384;20.930;2023-01-08T04:20:12;100792.53;;;2.07;100.00
74834;BME280;63361;52.384;20.930;2023-01-08T04:22:37;100793.22;;;1.96;100.00
74834;BME280;63361;52.384;20.930;2023-01-08T04:25:02;100795.22;;;2.00;100.00
74834;BME280;63361;52.384;20.930;2023-01-08T04:27:28;100795.75;;;2.16;100.00
74834;BME280;63361;52.384;20.930;2023-01-08T04:29:53;100793.56;;;2.06;100.00
74834;BME280;63361;52.384;20.930;2023-01-08T04:32:18;100801.53;;;2.13;100.00
74834;BME280;63361;52.384;20.930;2023-01-08T04:34:44;100778.19;;;2.08;100.00
74834;BME280;63361;52.384;20.930;2023-01-08T04:37:09;100774.28;;;2.10;100.00
74834;BME280;63361;52.384;20.930;2023-01-08T04:39:34;100779.00;;;2.08;100.00
74834;BME280;63361;52.384;20.930;2023-01-08T04:42:00;100769.81;;;2.04;100.00
74834;BME280;63361;52.384;20.930;2023-01-08T04:44:25;100795.94;;;2.14;100.00
74834;BME280;63361;52.384;20.930;2023-01-08T04:46:51;100795.53;;;2.17;100.00
74834;BME280;63361;52.384;20.930;2023-01-08T04:49:16;100780.44;;;2.11;100.00
74834;BME280;63361;52.384;20.930;2023-01-08T04:51:41;100780.78;;;2.15;100.00
74834;BME280;63361;52.384;20.930;2023-01-08T04:54:07;100790.88;;;2.13;100.00
74834;BME280;63361;52.384;20.930;2023-01-08T04:56:32;100771.88;;;2.02;100.00
74834;BME280;63361;52.384;20.930;2023-01-08T04:58:58;100774.09;;;2.05;100.00
74834;BME280;63361;52.384;20.930;2023-01-08T05:01:25;100793.13;;;2.09;100.00
74834;BME280;63361;52.384;20.930;2023-01-08T05:03:57;100784.78;;;1.99;100.00
74834;BME280;63361;52.384;20.930;2023-01-08T05:06:22;100787.41;;;2.05;100.00
74834;BME280;63361;52.384;20.930;2023-01-08T05:08:48;100782.13;;;1.99;100.00
74834;BME280;63361;52.384;20.930;2023-01-08T05:11:13;100789.88;;;2.07;100.00
74834;BME280;63361;52.384;20.930;2023-01-08T05:13:39;100784.75;;;2.05;100.00
74834;BME280;63361;52.384;20.930;2023-01-08T05:16:04;100773.91;;;2.00;100.00
74834;BME280;63361;52.384;20.930;2023-01-08T05:18:30;100773.69;;;2.08;100.00
74834;BME280;63361;52.384;20.930;2023-01-08T05:20:59;100781.41;;;2.17;100.00
74834;BME280;63361;52.384;20.930;2023-01-08T05:23:25;100764.25;;;2.13;100.00
74834;BME280;63361;52.384;20.930;2023-01-08T05:25:51;100765.91;;;2.07;100.00
74834;BME280;63361;52.384;20.930;2023-01-08T05:28:16;100768.53;;;2.14;100.00
74834;BME280;63361;52.384;20.930;2023-01-08T05:30:41;100770.38;;;2.13;100.00
74834;BME280;63361;52.384;20.930;2023-01-08T05:33:07;100780.97;;;2.20;100.00
74834;BME280;63361;52.384;20.930;2023-01-08T05:35:32;100765.69;;;2.08;100.00
74834;BME280;63361;52.384;20.930;2023-01-08T05:37:58;100774.31;;;2.04;100.00
74834;BME280;63361;52.384;20.930;2023-01-08T05:40:24;100781.84;;;2.14;100.00
74834;BME280;63361;52.384;20.930;2023-01-08T05:42:50;100765.88;;;2.14;100.00
74834;BME280;63361;52.384;20.930;2023-01-08T05:45:15;100771.19;;;2.14;100.00
74834;BME280;63361;52.384;20.930;2023-01-08T05:47:40;100767.66;;;2.20;100.00
74834;BME280;63361;52.384;20.930;2023-01-08T05:50:06;100775.72;;;2.13;100.00
74834;BME280;63361;52.384;20.930;2023-01-08T05:52:32;100773.63;;;2.15;100.00
74834;BME280;63361;52.384;20.930;2023-01-08T05:54:57;100768.75;;;2.12;100.00
74834;BME280;63361;52.384;20.930;2023-01-08T05:57:24;100762.16;;;2.15;100.00
74834;BME280;63361;52.384;20.930;2023-01-08T05:59:50;100777.28;;;2.21;100.00
74834;BME280;63361;52.384;20.930;2023-01-08T06:02:15;100742.56;;;2.09;100.00
74834;BME280;63361;52.384;20.930;2023-01-08T06:04:41;100755.75;;;2.22;100.00
74834;BME280;63361;52.384;20.930;2023-01-08T06:07:06;100761.31;;;2.21;100.00
74834;BME280;63361;52.384;20.930;2023-01-08T06:09:32;100765.22;;;2.18;100.00
74834;BME280;63361;52.384;20.930;2023-01-08T06:11:57;100751.28;;;2.16;100.00
74834;BME280;63361;52.384;20.930;2023-01-08T06:14:23;100742.13;;;2.12;100.00
74834;BME280;63361;52.384;20.930;2023-01-08T06:16:48;100762.75;;;2.17;100.00
74834;BME280;63361;52.384;20.930;2023-01-08T06:19:14;100747.25;;;2.14;100.00
74834;BME280;63361;52.384;20.930;2023-01-08T06:21:39;100759.50;;;2.15;100.00
74834;BME280;63361;52.384;20.930;2023-01-08T06:24:04;100746.03;;;2.09;100.00
74834;BME280;63361;52.384;20.930;2023-01-08T06:26:30;100745.25;;;2.02;100.00
74834;BME280;63361;52.384;20.930;2023-01-08T06:28:55;100747.91;;;2.02;100.00
74834;BME280;63361;52.384;20.930;2023-01-08T06:31:20;100752.31;;;2.15;100.00
74834;BME280;63361;52.384;20.930;2023-01-08T06:33:46;100752.31;;;2.15;100.00
74834;BME280;63361;52.384;20.930;2023-01-08T06:36:11;100742.34;;;2.10;100.00
74834;BME280;63361;52.384;20.930;2023-01-08T06:38:36;100746.75;;;2.23;100.00
74834;BME280;63361;52.384;20.930;2023-01-08T06:41:04;100740.44;;;2.18;100.00
74834;BME280;63361;52.384;20.930;2023-01-08T06:43:29;100727.19;;;2.11;100.00
74834;BME280;63361;52.384;20.930;2023-01-08T06:45:55;100725.47;;;2.17;100.00
74834;BME280;63361;52.384;20.930;2023-01-08T06:48:23;100739.81;;;2.16;100.00
74834;BME280;63361;52.384;20.930;2023-01-08T06:50:49;100742.44;;;2.22;100.00
74834;BME280;63361;52.384;20.930;2023-01-08T06:53:14;100730.78;;;2.23;100.00
74834;BME280;63361;52.384;20.930;2023-01-08T06:55:39;100732.00;;;2.21;100.00
74834;BME280;63361;52.384;20.930;2023-01-08T06:58:05;100723.22;;;2.20;100.00
74834;BME280;63361;52.384;20.930;2023-01-08T07:00:30;100732.19;;;2.26;100.00
74834;BME280;63361;52.384;20.930;2023-01-08T07:02:55;100743.44;;;2.28;100.00
74834;BME280;63361;52.384;20.930;2023-01-08T07:05:21;100724.84;;;2.21;100.00
74834;BME280;63361;52.384;20.930;2023-01-08T07:07:47;100728.03;;;2.30;100.00
74834;BME280;63361;52.384;20.930;2023-01-08T07:10:12;100736.47;;;2.27;100.00
74834;BME280;63361;52.384;20.930;2023-01-08T07:12:38;100715.81;;;2.22;100.00
74834;BME280;63361;52.384;20.930;2023-01-08T07:15:03;100733.00;;;2.26;100.00
74834;BME280;63361;52.384;20.930;2023-01-08T07:17:31;100734.41;;;2.29;100.00
74834;BME280;63361;52.384;20.930;2023-01-08T07:19:56;100735.06;;;2.24;99.74
74834;BME280;63361;52.384;20.930;2023-01-08T07:22:22;100698.41;;;2.20;99.93
74834;BME280;63361;52.384;20.930;2023-01-08T07:24:48;100698.59;;;2.25;99.42
74834;BME280;63361;52.384;20.930;2023-01-08T07:27:13;100697.81;;;2.18;99.72
74834;BME280;63361;52.384;20.930;2023-01-08T07:29:39;100694.50;;;2.22;99.09
74834;BME280;63361;52.384;20.930;2023-01-08T07:32:04;100703.25;;;2.29;99.11
74834;BME280;63361;52.384;20.930;2023-01-08T07:34:29;100712.59;;;2.38;99.16
74834;BME280;63361;52.384;20.930;2023-01-08T07:36:55;100706.16;;;2.28;98.97
74834;BME280;63361;52.384;20.930;2023-01-08T07:39:20;100694.59;;;2.34;98.83
74834;BME280;63361;52.384;20.930;2023-01-08T07:41:45;100680.38;;;2.22;99.05
74834;BME280;63361;52.384;20.930;2023-01-08T07:44:11;100682.19;;;2.28;98.89
74834;BME280;63361;52.384;20.930;2023-01-08T07:46:37;100688.53;;;2.27;99.06
74834;BME280;63361;52.384;20.930;2023-01-08T07:49:03;100683.66;;;2.24;98.64
74834;BME280;63361;52.384;20.930;2023-01-08T07:51:29;100673.81;;;2.24;98.42
74834;BME280;63361;52.384;20.930;2023-01-08T07:53:55;100680.34;;;2.28;98.58
74834;BME280;63361;52.384;20.930;2023-01-08T07:56:21;100678.63;;;2.34;98.13
74834;BME280;63361;52.384;20.930;2023-01-08T07:58:46;100688.75;;;2.25;98.63
74834;BME280;63361;52.384;20.930;2023-01-08T08:01:12;100667.72;;;2.17;98.28
74834;BME280;63361;52.384;20.930;2023-01-08T08:03:38;100692.16;;;2.32;98.96
74834;BME280;63361;52.384;20.930;2023-01-08T08:06:04;100696.06;;;2.30;98.94
74834;BME280;63361;52.384;20.930;2023-01-08T08:08:29;100687.53;;;2.46;98.61
74834;BME280;63361;52.384;20.930;2023-01-08T08:10:54;100681.69;;;2.37;97.85
74834;BME280;63361;52.384;20.930;2023-01-08T08:13:20;100689.84;;;2.42;97.75
74834;BME280;63361;52.384;20.930;2023-01-08T08:15:45;100678.50;;;2.29;97.99
74834;BME280;63361;52.384;20.930;2023-01-08T08:18:11;100692.94;;;2.39;98.29
74834;BME280;63361;52.384;20.930;2023-01-08T08:20:36;100680.94;;;2.48;97.85
74834;BME280;63361;52.384;20.930;2023-01-08T08:23:06;100694.69;;;2.70;97.23
74834;BME280;63361;52.384;20.930;2023-01-08T08:25:32;100675.38;;;2.75;96.38
74834;BME280;63361;52.384;20.930;2023-01-08T08:27:59;100670.28;;;2.48;96.25
74834;BME280;63361;52.384;20.930;2023-01-08T08:30:25;100680.34;;;2.46;96.25
74834;BME280;63361;52.384;20.930;2023-01-08T08:32:52;100683.22;;;2.45;96.73
74834;BME280;63361;52.384;20.930;2023-01-08T08:35:17;100659.25;;;2.45;97.10
74834;BME280;63361;52.384;20.930;2023-01-08T08:37:43;100653.72;;;2.46;96.00
74834;BME280;63361;52.384;20.930;2023-01-08T08:40:09;100659.63;;;2.48;95.71
74834;BME280;63361;52.384;20.930;2023-01-08T08:42:34;100650.69;;;2.43;95.22
74834;BME280;63361;52.384;20.930;2023-01-08T08:44:59;100661.59;;;2.60;95.84
74834;BME280;63361;52.384;20.930;2023-01-08T08:47:26;100674.00;;;2.66;95.60
74834;BME280;63361;52.384;20.930;2023-01-08T08:50:01;100670.25;;;2.55;95.68
74834;BME280;63361;52.384;20.930;2023-01-08T08:52:35;100613.28;;;2.31;96.42
74834;BME280;63361;52.384;20.930;2023-01-08T08:55:02;100630.03;;;2.38;96.23
74834;BME280;63361;52.384;20.930;2023-01-08T08:57:27;100598.72;;;2.34;95.67
74834;BME280;63361;52.384;20.930;2023-01-08T08:59:53;100650.41;;;2.69;96.30
74834;BME280;63361;52.384;20.930;2023-01-08T09:02:18;100615.09;;;2.37;96.08
74834;BME280;63361;52.384;20.930;2023-01-08T09:04:44;100624.34;;;2.53;96.13
74834;BME280;63361;52.384;20.930;2023-01-08T09:07:09;100665.44;;;2.82;95.65
74834;BME280;63361;52.384;20.930;2023-01-08T09:09:35;100599.41;;;2.47;94.97
74834;BME280;63361;52.384;20.930;2023-01-08T09:12:00;100658.25;;;3.01;94.78
74834;BME280;63361;52.384;20.930;2023-01-08T09:14:29;100658.19;;;2.89;94.16
74834;BME280;63361;52.384;20.930;2023-01-08T09:16:54;100652.16;;;2.75;94.91
74834;BME280;63361;52.384;20.930;2023-01-08T09:19:19;100640.25;;;2.78;95.02
74834;BME280;63361;52.384;20.930;2023-01-08T09:21:45;100655.59;;;3.01;94.25
74834;BME280;63361;52.384;20.930;2023-01-08T09:24:10;100648.78;;;3.05;93.83
74834;BME280;63361;52.384;20.930;2023-01-08T09:26:36;100637.44;;;2.91;93.54
74834;BME280;63361;52.384;20.930;2023-01-08T09:29:01;100652.38;;;3.10;93.87
74834;BME280;63361;52.384;20.930;2023-01-08T09:31:27;100648.66;;;3.11;93.69
74834;BME280;63361;52.384;20.930;2023-01-08T09:33:52;100652.84;;;3.37;93.32
74834;BME280;63361;52.384;20.930;2023-01-08T09:36:18;100651.44;;;3.05;93.29
74834;BME280;63361;52.384;20.930;2023-01-08T09:38:44;100642.94;;;3.26;93.30
74834;BME280;63361;52.384;20.930;2023-01-08T09:41:12;100616.19;;;3.03;92.86
74834;BME280;63361;52.384;20.930;2023-01-08T09:43:44;100628.75;;;3.14;93.34
74834;BME280;63361;52.384;20.930;2023-01-08T09:46:11;100632.63;;;3.30;93.02
74834;BME280;63361;52.384;20.930;2023-01-08T09:48:40;100631.03;;;3.40;92.99
74834;BME280;63361;52.384;20.930;2023-01-08T09:51:11;100626.56;;;3.52;92.53
74834;BME280;63361;52.384;20.930;2023-01-08T09:53:37;100605.47;;;3.51;91.44
74834;BME280;63361;52.384;20.930;2023-01-08T09:56:08;100611.53;;;3.28;92.24
74834;BME280;63361;52.384;20.930;2023-01-08T10:01:06;100617.47;;;3.42;91.84
74834;BME280;63361;52.384;20.930;2023-01-08T10:03:41;100599.84;;;3.41;91.94
74834;BME280;63361;52.384;20.930;2023-01-08T10:06:09;100600.13;;;3.63;91.08
74834;BME280;63361;52.384;20.930;2023-01-08T10:08:35;100590.50;;;3.62;90.71
74834;BME280;63361;52.384;20.930;2023-01-08T10:11:00;100595.53;;;3.81;90.92
74834;BME280;63361;52.384;20.930;2023-01-08T10:13:26;100603.88;;;3.85;89.36
74834;BME280;63361;52.384;20.930;2023-01-08T10:15:51;100586.94;;;4.03;88.96
74834;BME280;63361;52.384;20.930;2023-01-08T10:18:18;100608.53;;;4.01;88.91
74834;BME280;63361;52.384;20.930;2023-01-08T10:20:46;100586.81;;;3.98;89.34
74834;BME280;63361;52.384;20.930;2023-01-08T10:23:14;100593.69;;;3.94;88.42
74834;BME280;63361;52.384;20.930;2023-01-08T10:25:53;100596.69;;;4.09;89.92
74834;BME280;63361;52.384;20.930;2023-01-08T10:28:22;100575.78;;;3.82;89.78
74834;BME280;63361;52.384;20.930;2023-01-08T10:30:49;100591.91;;;3.87;90.26
74834;BME280;63361;52.384;20.930;2023-01-08T10:33:28;100557.31;;;3.58;90.47
74834;BME280;63361;52.384;20.930;2023-01-08T10:36:03;100569.50;;;3.65;90.70
74834;BME280;63361;52.384;20.930;2023-01-08T10:38:39;100574.00;;;3.53;91.02
74834;BME280;63361;52.384;20.930;2023-01-08T10:41:09;100551.75;;;3.59;90.70
74834;BME280;63361;52.384;20.930;2023-01-08T10:43:41;100532.38;;;3.64;90.31
74834;BME280;63361;52.384;20.930;2023-01-08T10:46:21;100544.66;;;4.00;90.75
74834;BME280;63361;52.384;20.930;2023-01-08T10:48:51;100521.22;;;3.90;89.59
74834;BME280;63361;52.384;20.930;2023-01-08T10:51:24;100531.56;;;3.86;89.49
74834;BME280;63361;52.384;20.930;2023-01-08T10:53:51;100546.31;;;4.12;88.42
74834;BME280;63361;52.384;20.930;2023-01-08T10:56:28;100526.91;;;4.05;88.12
74834;BME280;63361;52.384;20.930;2023-01-08T10:58:58;100497.75;;;4.04;87.41
74834;BME280;63361;52.384;20.930;2023-01-08T11:01:26;100533.84;;;4.18;87.46
74834;BME280;63361;52.384;20.930;2023-01-08T11:03:58;100469.00;;;3.71;87.43
74834;BME280;63361;52.384;20.930;2023-01-08T11:06:26;100523.53;;;3.86;87.89
74834;BME280;63361;52.384;20.930;2023-01-08T11:09:12;100524.59;;;3.74;88.59
74834;BME280;63361;52.384;20.930;2023-01-08T11:11:41;100472.59;;;3.65;88.54
74834;BME280;63361;52.384;20.930;2023-01-08T11:16:51;100506.00;;;3.44;89.45
74834;BME280;63361;52.384;20.930;2023-01-08T11:19:26;100513.19;;;3.67;88.88
74834;BME280;63361;52.384;20.930;2023-01-08T11:22:04;100514.38;;;3.59;88.98
74834;BME280;63361;52.384;20.930;2023-01-08T11:24:34;100483.97;;;3.48;89.12
74834;BME280;63361;52.384;20.930;2023-01-08T11:29:35;100513.91;;;3.97;87.91
74834;BME280;63361;52.384;20.930;2023-01-08T11:37:28;100515.78;;;3.62;88.22
74834;BME280;63361;52.384;20.930;2023-01-08T11:39:55;100508.69;;;3.56;88.68
74834;BME280;63361;52.384;20.930;2023-01-08T11:42:43;100515.63;;;3.68;88.11
74834;BME280;63361;52.384;20.930;2023-01-08T11:48:10;100512.28;;;3.49;88.76
74834;BME280;63361;52.384;20.930;2023-01-08T11:53:35;100494.88;;;3.59;89.03
74834;BME280;63361;52.384;20.930;2023-01-08T12:07:18;100491.50;;;3.75;88.05
74834;BME280;63361;52.384;20.930;2023-01-08T12:09:50;100462.75;;;3.65;87.43
74834;BME280;63361;52.384;20.930;2023-01-08T12:12:40;100496.84;;;3.75;86.80
74834;BME280;63361;52.384;20.930;2023-01-08T12:15:18;100486.50;;;3.67;86.92
74834;BME280;63361;52.384;20.930;2023-01-08T12:20:59;100487.09;;;3.45;87.55
74834;BME280;63361;52.384;20.930;2023-01-08T12:40:34;100482.31;;;3.24;88.25
74834;BME280;63361;52.384;20.930;2023-01-08T12:43:06;100482.16;;;3.07;88.37
74834;BME280;63361;52.384;20.930;2023-01-08T12:45:39;100470.34;;;3.03;89.02
74834;BME280;63361;52.384;20.930;2023-01-08T12:48:13;100484.00;;;3.07;89.31
74834;BME280;63361;52.384;20.930;2023-01-08T12:53:36;100482.28;;;3.12;88.32
74834;BME280;63361;52.384;20.930;2023-01-08T12:56:08;100476.38;;;3.10;89.03
74834;BME280;63361;52.384;20.930;2023-01-08T13:04:49;100454.22;;;3.10;88.99
74834;BME280;63361;52.384;20.930;2023-01-08T13:07:41;100476.28;;;3.29;88.81
74834;BME280;63361;52.384;20.930;2023-01-08T13:10:20;100472.06;;;3.09;89.26
74834;BME280;63361;52.384;20.930;2023-01-08T13:12:50;100466.97;;;3.08;89.37
74834;BME280;63361;52.384;20.930;2023-01-08T13:15:22;100469.84;;;3.06;89.60
74834;BME280;63361;52.384;20.930;2023-01-08T13:17:50;100429.59;;;2.73;89.15
74834;BME280;63361;52.384;20.930;2023-01-08T13:20:21;100463.25;;;2.97;89.23
74834;BME280;63361;52.384;20.930;2023-01-08T13:22:52;100453.75;;;2.90;89.86
74834;BME280;63361;52.384;20.930;2023-01-08T13:27:45;100447.34;;;2.91;89.88
74834;BME280;63361;52.384;20.930;2023-01-08T13:32:55;100447.44;;;2.84;89.50
74834;BME280;63361;52.384;20.930;2023-01-08T13:35:28;100449.63;;;2.75;90.09
74834;BME280;63361;52.384;20.930;2023-01-08T13:43:20;100479.44;;;2.84;89.90
74834;BME280;63361;52.384;20.930;2023-01-08T13:46:02;100477.72;;;2.90;90.84
74834;BME280;63361;52.384;20.930;2023-01-08T13:48:46;100453.22;;;2.69;90.77
74834;BME280;63361;52.384;20.930;2023-01-08T13:51:43;100462.41;;;2.85;90.96
74834;BME280;63361;52.384;20.930;2023-01-08T13:56:38;100455.09;;;2.80;90.97
74834;BME280;63361;52.384;20.930;2023-01-08T13:59:04;100444.88;;;2.77;90.89
74834;BME280;63361;52.384;20.930;2023-01-08T14:01:30;100453.81;;;2.83;91.84
74834;BME280;63361;52.384;20.930;2023-01-08T14:03:56;100449.97;;;2.79;91.30
74834;BME280;63361;52.384;20.930;2023-01-08T14:06:24;100454.28;;;2.80;91.38
74834;BME280;63361;52.384;20.930;2023-01-08T14:08:54;100463.66;;;2.82;91.28
74834;BME280;63361;52.384;20.930;2023-01-08T14:11:23;100452.25;;;2.64;91.41
74834;BME280;63361;52.384;20.930;2023-01-08T14:13:49;100461.56;;;2.73;91.63
74834;BME280;63361;52.384;20.930;2023-01-08T14:16:15;100447.97;;;2.63;91.48
74834;BME280;63361;52.384;20.930;2023-01-08T14:18:45;100451.22;;;2.65;91.69